createdAt,value
2023-04-29T00:08:40.285Z,100419.00
2023-04-29T00:18:40.273Z,100419.00
2023-04-29T00:28:40.304Z,100423.00
2023-04-29T00:38:40.351Z,100425.00
2023-04-29T00:48:41.035Z,100439.00
2023-04-29T00:58:41.294Z,100451.00
2023-04-29T01:08:41.454Z,100462.00
2023-04-29T01:18:42.202Z,100474.00
2023-04-29T01:28:42.550Z,100482.00
2023-04-29T01:38:43.137Z,100488.00
2023-04-29T01:48:43.630Z,100492.00
2023-04-29T01:58:48.698Z,100496.00
2023-04-29T02:08:50.596Z,100500.00
2023-04-29T02:18:50.918Z,100505.00
2023-04-29T02:28:51.992Z,100515.00
2023-04-29T02:38:54.356Z,100523.00
2023-04-29T02:48:54.516Z,100533.00
2023-04-29T02:58:54.540Z,100553.00
2023-04-29T03:08:54.717Z,100563.00
2023-04-29T03:18:54.761Z,100567.00
2023-04-29T03:28:54.747Z,100579.00
2023-04-29T03:38:55.102Z,100581.00
2023-04-29T03:48:56.491Z,100587.00
2023-04-29T03:58:57.478Z,100589.00
2023-04-29T04:08:59.773Z,100598.00
2023-04-29T04:18:59.840Z,100608.00
2023-04-29T04:29:01.456Z,100616.00
2023-04-29T04:39:01.788Z,100630.00
2023-04-29T04:49:02.202Z,100639.00
2023-04-29T04:59:03.261Z,100653.00
2023-04-29T05:09:05.196Z,100661.00
2023-04-29T05:19:07.683Z,100673.00
2023-04-29T05:29:09.569Z,100688.00
2023-04-29T05:39:10.356Z,100698.00
2023-04-29T05:49:10.773Z,100708.00
2023-04-29T05:59:14.136Z,100722.00
2023-04-29T06:09:26.434Z,100731.00
2023-04-29T06:19:18.964Z,100747.00
2023-04-29T06:29:18.962Z,100761.00
2023-04-29T06:39:26.678Z,100771.00
2023-04-29T06:49:26.958Z,100782.00
2023-04-29T06:59:26.773Z,100803.00
2023-04-29T07:09:27.312Z,100817.00
2023-04-29T07:19:27.973Z,100830.00
2023-04-29T07:29:28.067Z,100844.00
2023-04-29T07:39:30.112Z,100862.00
2023-04-29T07:49:30.140Z,100865.00
2023-04-29T07:59:30.498Z,100875.00
2023-04-29T08:09:31.242Z,100883.00
2023-04-29T08:19:31.884Z,100891.00
2023-04-29T08:29:32.784Z,100901.00
2023-04-29T08:39:35.899Z,100909.00
2023-04-29T08:49:37.580Z,100918.00
2023-04-29T08:59:37.977Z,100930.00
2023-04-29T09:09:37.920Z,100940.00
2023-04-29T09:19:37.977Z,100952.00
2023-04-29T09:29:38.854Z,100958.00
2023-04-29T09:39:38.964Z,100969.00
2023-04-29T09:49:40.776Z,100973.00
2023-04-29T09:59:41.063Z,100979.00
2023-04-29T10:09:41.039Z,100993.00
2023-04-29T10:19:41.034Z,101001.00
2023-04-29T10:29:41.518Z,101009.00
2023-04-29T10:39:42.062Z,101012.00
2023-04-29T10:49:42.035Z,101022.00
2023-04-29T10:59:42.130Z,101030.00
2023-04-29T11:09:42.064Z,101034.00
2023-04-29T11:19:42.186Z,101042.00
2023-04-29T11:29:42.072Z,101040.00
2023-04-29T11:39:42.119Z,101042.00
2023-04-29T11:49:42.504Z,101050.00
2023-04-29T11:59:42.458Z,101050.00
2023-04-29T12:09:42.530Z,101062.00
2023-04-29T12:19:43.564Z,101060.00
2023-04-29T12:29:44.241Z,101060.00
2023-04-29T12:39:47.233Z,101058.00
2023-04-29T12:49:47.629Z,101044.00
2023-04-29T12:59:51.309Z,101046.00
2023-04-29T13:09:51.358Z,101050.00
2023-04-29T13:19:52.399Z,101044.00
2023-04-29T13:29:52.361Z,101048.00
2023-04-29T13:39:57.243Z,101046.00
2023-04-29T13:50:22.582Z,101050.00
2023-04-29T13:59:57.219Z,101058.00
2023-04-29T14:09:57.634Z,101058.00
2023-04-29T14:19:57.669Z,101060.00
2023-04-29T14:29:57.402Z,101066.00
2023-04-29T14:39:57.433Z,101074.00
2023-04-29T14:49:57.418Z,101082.00
2023-04-29T14:59:57.510Z,101088.00
2023-04-29T15:09:57.530Z,101097.00
2023-04-29T15:19:57.524Z,101101.00
2023-04-29T15:29:57.591Z,101103.00
2023-04-29T15:39:57.887Z,101103.00
2023-04-29T15:49:58.539Z,101105.00
2023-04-29T15:59:58.690Z,101111.00
2023-04-29T16:09:58.511Z,101113.00
2023-04-29T16:19:58.644Z,101117.00
2023-04-29T16:29:59.146Z,101119.00
2023-04-29T16:40:00.008Z,101117.00
2023-04-29T16:50:00.621Z,101115.00
2023-04-29T17:00:00.629Z,101117.00
2023-04-29T17:10:00.638Z,101119.00
2023-04-29T17:20:00.648Z,101121.00
2023-04-29T17:30:01.125Z,101123.00
2023-04-29T17:40:01.681Z,101125.00
2023-04-29T17:50:02.700Z,101125.00
2023-04-29T18:00:05.046Z,101131.00
2023-04-29T18:10:05.580Z,101133.00
2023-04-29T18:20:06.152Z,101135.00
2023-04-29T18:30:07.155Z,101139.00
2023-04-29T18:40:07.727Z,101141.00
2023-04-29T18:50:08.413Z,101144.00
2023-04-29T19:00:08.791Z,101150.00
2023-04-29T19:10:09.022Z,101150.00
2023-04-29T19:20:09.639Z,101162.00
2023-04-29T19:30:10.248Z,101170.00
2023-04-29T19:40:10.821Z,101176.00
2023-04-29T19:50:10.909Z,101178.00
2023-04-29T20:00:13.102Z,101180.00
2023-04-29T20:10:12.857Z,101190.00
2023-04-29T20:20:12.850Z,101201.00
2023-04-29T20:30:13.563Z,101203.00
2023-04-29T20:40:14.034Z,101213.00
2023-04-29T20:50:13.962Z,101219.00
2023-04-29T21:00:14.627Z,101223.00
2023-04-29T21:10:15.076Z,101229.00
2023-04-29T21:20:16.577Z,101235.00
2023-04-29T21:30:16.929Z,101244.00
2023-04-29T21:40:18.366Z,101246.00
2023-04-29T21:50:19.018Z,101248.00
2023-04-29T22:00:21.754Z,101254.00
2023-04-29T22:10:22.063Z,101264.00
2023-04-29T22:20:25.087Z,101272.00
2023-04-29T22:30:25.013Z,101276.00
2023-04-29T22:40:25.108Z,101284.00
2023-04-29T22:50:25.077Z,101284.00
2023-04-29T23:00:25.664Z,101293.00
2023-04-29T23:10:26.232Z,101295.00
2023-04-29T23:20:26.101Z,101303.00
2023-04-29T23:30:26.316Z,101316.00
2023-04-29T23:40:26.229Z,101316.00
2023-04-29T23:50:26.146Z,101316.00
